Time;durP1;ratioP1;P1;durP2;ratioP2;P2;SDS_P1;SDS_P2;PMS_P1;PMS_P2;Temp;Humidity;BMP_temperature;BMP_pressure;BME280_temperature;BME280_humidity;BME280_pressure;Samples;Min_cycle;Max_cycle;Signal;HPM_P1;HPM_P2
2022/04/04 00:00:50;;;;;;;6.88;6.28;;;;;;;;;;5095130;28;20212;-84
2022/04/04 00:03:17;;;;;;;7.15;6.57;;;;;;;;;;5094902;28;20220;-84
2022/04/04 00:05:45;;;;;;;7.50;5.90;;;;;;;;;;5095620;28;20210;-84
2022/04/04 00:08:13;;;;;;;6.88;6.28;;;;;;;;;;5095529;28;20196;-84
2022/04/04 00:10:41;;;;;;;7.00;6.40;;;;;;;;;;5096059;28;20608;-84
2022/04/04 00:13:08;;;;;;;6.75;6.15;;;;;;;;;;5094872;28;20610;-84
2022/04/04 00:15:35;;;;;;;6.60;6.07;;;;;;;;;;5094555;28;20227;-84
2022/04/04 00:18:07;;;;;;;6.97;6.43;;;;;;;;;;5095531;28;20204;-84
2022/04/04 00:20:35;;;;;;;7.53;6.93;;;;;;;;;;5095129;28;20185;-84
2022/04/04 00:23:02;;;;;;;6.68;6.07;;;;;;;;;;5094502;28;20602;-85
2022/04/04 00:25:31;;;;;;;7.30;6.70;;;;;;;;;;5094912;28;20208;-84
2022/04/04 00:27:58;;;;;;;7.40;6.80;;;;;;;;;;5095051;28;20228;-84
2022/04/04 00:30:26;;;;;;;5.90;5.35;;;;;;;;;;5095248;28;20192;-85
2022/04/04 00:32:53;;;;;;;6.43;5.93;;;;;;;;;;5094620;28;20203;-84
2022/04/04 00:35:21;;;;;;;6.38;5.63;;;;;;;;;;5094743;28;20244;-85
2022/04/04 00:37:48;;;;;;;6.57;6.07;;;;;;;;;;5094863;28;20208;-84
2022/04/04 00:40:15;;;;;;;7.75;7.10;;;;;;;;;;5094214;28;20211;-84
2022/04/04 00:42:44;;;;;;;8.07;7.38;;;;;;;;;;5094449;28;20200;-84
2022/04/04 00:45:11;;;;;;;7.10;6.47;;;;;;;;;;5094733;28;20559;-84
2022/04/04 00:47:38;;;;;;;6.30;5.70;;;;;;;;;;5094915;28;20196;-84
2022/04/04 00:50:07;;;;;;;5.03;4.63;;;;;;;;;;5094857;28;20199;-84
2022/04/04 00:52:35;;;;;;;6.05;5.63;;;;;;;;;;5093570;28;20203;-84
2022/04/04 00:55:03;;;;;;;5.03;4.63;;;;;;;;;;5093887;28;20234;-84
2022/04/04 00:57:31;;;;;;;6.95;6.35;;;;;;;;;;5094335;28;20212;-84
2022/04/04 00:59:59;;;;;;;6.15;5.65;;;;;;;;;;5094351;28;20193;-85
2022/04/04 01:02:27;;;;;;;7.15;6.53;;;;;;;;;;5094931;28;20207;-84
2022/04/04 01:04:54;;;;;;;7.47;6.85;;;;;;;;;;5094512;28;20223;-85
2022/04/04 01:07:21;;;;;;;7.20;5.50;;;;;;;;;;5094221;28;20207;-84
2022/04/04 01:09:48;;;;;;;7.45;6.85;;;;;;;;;;5093756;28;20196;-84
2022/04/04 01:12:16;;;;;;;6.05;5.55;;;;;;;;;;5093726;28;20291;-85
2022/04/04 01:14:46;;;;;;;5.40;5.00;;;;;;;;;;5093694;28;20212;-84
2022/04/04 01:17:15;;;;;;;5.68;5.28;;;;;;;;;;5093838;28;20695;-85
2022/04/04 01:19:43;;;;;;;8.10;7.40;;;;;;;;;;5093729;28;20204;-84
2022/04/04 01:22:14;;;;;;;6.90;6.25;;;;;;;;;;5093787;28;20200;-84
2022/04/04 01:24:43;;;;;;;6.72;6.15;;;;;;;;;;5093792;28;20224;-84
2022/04/04 01:27:12;;;;;;;6.80;6.20;;;;;;;;;;5093597;28;20219;-84
2022/04/04 01:29:40;;;;;;;8.23;7.32;;;;;;;;;;5093916;28;20260;-84
2022/04/04 01:32:09;;;;;;;6.80;6.30;;;;;;;;;;5093209;28;20201;-84
2022/04/04 01:34:37;;;;;;;6.63;6.03;;;;;;;;;;5093342;28;20273;-84
2022/04/04 01:37:05;;;;;;;7.25;6.57;;;;;;;;;;5093545;28;20229;-84
2022/04/04 01:39:32;;;;;;;7.00;6.38;;;;;;;;;;5093988;28;20207;-84
2022/04/04 01:42:01;;;;;;;6.47;5.88;;;;;;;;;;5093371;28;20203;-84
2022/04/04 01:44:28;;;;;;;6.50;6.00;;;;;;;;;;5093038;28;20572;-85
2022/04/04 01:46:56;;;;;;;6.25;5.68;;;;;;;;;;5094005;28;20212;-84
2022/04/04 01:49:23;;;;;;;6.03;5.53;;;;;;;;;;5093295;28;20204;-85
2022/04/04 01:51:50;;;;;;;5.70;5.20;;;;;;;;;;5093324;28;20204;-84
2022/04/04 01:54:18;;;;;;;6.20;5.70;;;;;;;;;;5093157;28;20236;-84
2022/04/04 01:56:45;;;;;;;5.93;5.43;;;;;;;;;;5093231;28;20220;-84
2022/04/04 01:59:14;;;;;;;5.18;4.78;;;;;;;;;;5093659;28;20664;-84
2022/04/04 02:01:48;;;;;;;5.60;5.10;;;;;;;;;;5093255;28;20222;-85
2022/04/04 02:04:15;;;;;;;5.82;4.97;;;;;;;;;;5092976;28;20224;-84
2022/04/04 02:06:43;;;;;;;5.72;5.32;;;;;;;;;;5093103;28;20207;-84
2022/04/04 02:09:10;;;;;;;5.85;5.35;;;;;;;;;;5093010;28;20204;-84
2022/04/04 02:11:37;;;;;;;6.88;5.90;;;;;;;;;;5092707;28;20714;-84
2022/04/04 02:14:05;;;;;;;6.40;5.75;;;;;;;;;;5092427;28;20602;-84
2022/04/04 02:16:34;;;;;;;4.60;4.28;;;;;;;;;;5092719;28;20721;-85
2022/04/04 02:19:01;;;;;;;5.75;5.25;;;;;;;;;;5092627;28;20192;-84
2022/04/04 02:21:29;;;;;;;6.57;5.97;;;;;;;;;;5092635;28;20196;-84
2022/04/04 02:23:56;;;;;;;5.38;4.95;;;;;;;;;;5095657;28;20692;-85
2022/04/04 02:26:23;;;;;;;5.45;5.05;;;;;;;;;;5096566;28;20200;-83
2022/04/04 02:28:51;;;;;;;4.28;3.97;;;;;;;;;;5096972;28;20282;-84
2022/04/04 02:31:18;;;;;;;6.43;5.88;;;;;;;;;;5096311;28;20664;-83
2022/04/04 02:33:47;;;;;;;5.50;5.05;;;;;;;;;;5096491;28;20227;-83
2022/04/04 02:36:14;;;;;;;7.13;6.53;;;;;;;;;;5096477;28;20216;-84
2022/04/04 02:38:41;;;;;;;6.15;5.60;;;;;;;;;;5096212;28;20694;-83
2022/04/04 02:41:09;;;;;;;6.03;5.60;;;;;;;;;;5096246;28;20211;-85
2022/04/04 02:43:36;;;;;;;7.10;6.40;;;;;;;;;;5096116;28;20615;-83
2022/04/04 02:46:03;;;;;;;13.93;7.78;;;;;;;;;;5096247;28;20199;-84
2022/04/04 02:48:31;;;;;;;8.18;7.47;;;;;;;;;;5096676;28;20197;-84
2022/04/04 02:50:59;;;;;;;6.18;5.68;;;;;;;;;;5096417;28;20204;-84
2022/04/04 02:53:27;;;;;;;8.23;7.43;;;;;;;;;;5095959;28;20747;-83
2022/04/04 02:58:39;;;;;;;5.68;5.18;;;;;;;;;;5075695;28;20180;-84
2022/04/04 03:01:07;;;;;;;5.68;5.20;;;;;;;;;;5076189;28;20197;-84
2022/04/04 03:03:35;;;;;;;6.00;5.50;;;;;;;;;;5075700;28;20288;-83
2022/04/04 03:06:04;;;;;;;7.85;7.10;;;;;;;;;;5075830;28;20201;-82
2022/04/04 03:08:31;;;;;;;6.50;5.90;;;;;;;;;;5075850;28;20200;-84
2022/04/04 03:10:59;;;;;;;6.45;5.85;;;;;;;;;;5075745;28;20208;-84
2022/04/04 03:13:26;;;;;;;5.80;5.30;;;;;;;;;;5075564;28;20224;-84
2022/04/04 03:15:54;;;;;;;5.85;5.35;;;;;;;;;;5075677;28;20213;-84
2022/04/04 03:18:21;;;;;;;5.93;5.43;;;;;;;;;;5075271;28;20232;-84
2022/04/04 03:20:48;;;;;;;5.82;5.07;;;;;;;;;;5075361;28;20201;-84
2022/04/04 03:23:17;;;;;;;5.60;5.15;;;;;;;;;;5075326;28;20274;-84
2022/04/04 03:25:44;;;;;;;6.35;5.80;;;;;;;;;;5074984;28;20208;-84
2022/04/04 03:28:12;;;;;;;5.20;4.80;;;;;;;;;;5075448;28;20197;-84
2022/04/04 03:30:39;;;;;;;5.63;5.13;;;;;;;;;;5074506;28;20204;-84
2022/04/04 03:33:07;;;;;;;6.25;5.75;;;;;;;;;;5074213;28;20209;-84
2022/04/04 03:35:34;;;;;;;5.07;4.65;;;;;;;;;;5075518;28;20204;-84
2022/04/04 03:38:04;;;;;;;6.20;5.75;;;;;;;;;;5075316;28;20260;-84
2022/04/04 03:40:33;;;;;;;6.53;5.93;;;;;;;;;;5076048;28;20229;-84
2022/04/04 03:43:02;;;;;;;5.68;5.18;;;;;;;;;;5074966;28;20205;-84
2022/04/04 03:45:29;;;;;;;5.78;5.07;;;;;;;;;;5074869;28;20205;-83
2022/04/04 03:47:58;;;;;;;5.32;4.90;;;;;;;;;;5074883;28;20220;-84
2022/04/04 03:50:28;;;;;;;5.45;4.95;;;;;;;;;;5074773;28;20201;-83
2022/04/04 03:52:56;;;;;;;6.45;5.85;;;;;;;;;;5073956;28;20189;-83
2022/04/04 03:55:28;;;;;;;6.72;6.13;;;;;;;;;;5074672;28;20668;-84
2022/04/04 03:57:57;;;;;;;6.00;5.50;;;;;;;;;;5075027;28;20205;-83
2022/04/04 04:00:26;;;;;;;5.88;5.38;;;;;;;;;;5074350;28;20208;-84
2022/04/04 04:02:54;;;;;;;5.20;4.80;;;;;;;;;;5074185;28;20568;-83
2022/04/04 04:05:22;;;;;;;5.55;5.03;;;;;;;;;;5074534;28;20212;-84
2022/04/04 04:07:49;;;;;;;5.55;5.05;;;;;;;;;;5081836;28;20657;-83
2022/04/04 04:10:17;;;;;;;5.03;4.63;;;;;;;;;;5077400;28;20551;-83
2022/04/04 04:12:45;;;;;;;6.82;6.22;;;;;;;;;;5074114;28;20228;-83
2022/04/04 04:15:17;;;;;;;6.32;5.72;;;;;;;;;;5074299;28;20231;-83
2022/04/04 04:17:44;;;;;;;6.22;5.72;;;;;;;;;;5074421;28;20251;-84
2022/04/04 04:20:20;;;;;;;6.35;5.75;;;;;;;;;;5074303;28;20201;-84
2022/04/04 04:22:50;;;;;;;6.20;5.70;;;;;;;;;;5074248;28;20189;-84
2022/04/04 04:25:18;;;;;;;7.18;5.40;;;;;;;;;;5089425;28;20208;-84
2022/04/04 04:27:46;;;;;;;6.68;5.97;;;;;;;;;;5094557;28;20204;-83
2022/04/04 04:30:16;;;;;;;6.28;5.72;;;;;;;;;;5094460;28;20216;-84
2022/04/04 04:32:45;;;;;;;5.35;4.85;;;;;;;;;;5094020;28;20195;-84
2022/04/04 04:35:13;;;;;;;6.85;6.15;;;;;;;;;;5094415;28;20200;-83
2022/04/04 04:37:40;;;;;;;6.60;6.00;;;;;;;;;;5094065;28;20224;-83
2022/04/04 04:40:10;;;;;;;7.72;7.03;;;;;;;;;;5094377;28;20207;-84
2022/04/04 04:42:37;;;;;;;7.45;6.75;;;;;;;;;;5094059;28;20196;-84
2022/04/04 04:45:07;;;;;;;6.93;6.32;;;;;;;;;;5093397;28;20221;-83
2022/04/04 04:47:36;;;;;;;6.28;5.75;;;;;;;;;;5093659;28;20208;-84
2022/04/04 04:50:06;;;;;;;8.52;7.82;;;;;;;;;;5099582;28;20250;-84
2022/04/04 04:52:34;;;;;;;7.82;7.20;;;;;;;;;;5094062;28;20664;-84
2022/04/04 04:55:01;;;;;;;8.00;7.30;;;;;;;;;;5093671;28;20240;-84
2022/04/04 04:57:29;;;;;;;9.32;8.43;;;;;;;;;;5093660;28;20208;-83
2022/04/04 04:59:56;;;;;;;8.80;8.00;;;;;;;;;;5093552;28;20203;-84
2022/04/04 05:02:24;;;;;;;7.55;6.85;;;;;;;;;;5093571;28;20766;-84
2022/04/04 05:04:53;;;;;;;9.57;8.57;;;;;;;;;;5093458;28;20636;-84
2022/04/04 05:07:20;;;;;;;8.50;7.80;;;;;;;;;;5093545;28;20642;-83
2022/04/04 05:09:48;;;;;;;9.07;8.32;;;;;;;;;;5093509;28;20253;-84
2022/04/04 05:12:15;;;;;;;7.93;7.13;;;;;;;;;;5093332;28;20201;-83
2022/04/04 05:14:43;;;;;;;8.32;7.57;;;;;;;;;;5093267;28;20349;-84
2022/04/04 05:17:10;;;;;;;7.38;6.78;;;;;;;;;;5093729;28;20239;-84
2022/04/04 05:19:38;;;;;;;8.15;7.45;;;;;;;;;;5093456;28;20216;-84
2022/04/04 05:22:07;;;;;;;7.65;7.05;;;;;;;;;;5093435;28;20226;-84
2022/04/04 05:24:35;;;;;;;9.57;8.65;;;;;;;;;;5093136;28;20700;-84
2022/04/04 05:27:04;;;;;;;12.77;8.18;;;;;;;;;;5093179;28;20740;-84
2022/04/04 05:29:31;;;;;;;9.80;8.90;;;;;;;;;;5093436;28;20200;-84
2022/04/04 05:31:59;;;;;;;8.68;7.90;;;;;;;;;;5093114;28;20196;-83
2022/04/04 05:34:28;;;;;;;10.40;9.40;;;;;;;;;;5092891;28;20220;-84
2022/04/04 05:36:55;;;;;;;8.85;8.05;;;;;;;;;;5093326;28;20216;-84
2022/04/04 05:39:26;;;;;;;10.00;9.00;;;;;;;;;;5093541;28;20276;-84
2022/04/04 05:41:53;;;;;;;11.00;9.50;;;;;;;;;;5092598;28;20189;-77
2022/04/04 05:44:21;;;;;;;9.57;8.68;;;;;;;;;;5093028;28;20224;-77
2022/04/04 05:46:48;;;;;;;9.32;8.48;;;;;;;;;;5092469;28;20621;-76
2022/04/04 05:49:15;;;;;;;8.63;7.82;;;;;;;;;;5093204;28;20242;-77
2022/04/04 05:51:43;;;;;;;9.73;8.82;;;;;;;;;;5092450;28;20230;-76
2022/04/04 05:54:12;;;;;;;9.50;8.60;;;;;;;;;;5092180;28;20232;-78
2022/04/04 05:56:41;;;;;;;9.95;9.05;;;;;;;;;;5092904;28;20204;-77
2022/04/04 05:59:08;;;;;;;10.45;9.35;;;;;;;;;;5090709;28;20227;-77
2022/04/04 06:01:35;;;;;;;10.65;9.65;;;;;;;;;;5091345;28;20200;-77
2022/04/04 06:04:03;;;;;;;8.93;7.65;;;;;;;;;;5092097;28;20219;-77
2022/04/04 06:06:31;;;;;;;8.52;7.78;;;;;;;;;;5092312;28;20212;-77
2022/04/04 06:08:58;;;;;;;7.57;6.97;;;;;;;;;;5086095;28;20211;-77
2022/04/04 06:11:25;;;;;;;8.05;7.38;;;;;;;;;;5092505;28;20211;-77
2022/04/04 06:13:54;;;;;;;6.60;6.00;;;;;;;;;;5091639;28;20267;-77
2022/04/04 06:16:21;;;;;;;8.20;7.40;;;;;;;;;;5085581;28;20196;-77
2022/04/04 06:18:50;;;;;;;8.43;7.55;;;;;;;;;;5085302;28;20730;-77
2022/04/04 06:21:18;;;;;;;7.38;6.68;;;;;;;;;;5086090;28;20235;-78
2022/04/04 06:23:46;;;;;;;9.60;8.65;;;;;;;;;;5085089;28;20315;-77
2022/04/04 06:26:14;;;;;;;7.72;7.03;;;;;;;;;;5085882;28;20207;-77
2022/04/04 06:28:41;;;;;;;9.23;8.32;;;;;;;;;;5085797;28;20688;-77
2022/04/04 06:31:10;;;;;;;7.78;7.10;;;;;;;;;;5092046;28;20211;-77
2022/04/04 06:33:37;;;;;;;8.48;7.43;;;;;;;;;;5091483;28;20604;-77
2022/04/04 06:36:05;;;;;;;8.43;7.63;;;;;;;;;;5092624;28;20204;-77
2022/04/04 06:38:33;;;;;;;8.85;7.78;;;;;;;;;;5084854;28;20232;-76
2022/04/04 06:41:00;;;;;;;9.02;8.20;;;;;;;;;;5085498;28;20211;-77
2022/04/04 06:43:27;;;;;;;7.88;7.18;;;;;;;;;;5084943;28;20228;-77
2022/04/04 06:45:54;;;;;;;9.57;7.20;;;;;;;;;;5092104;28;20253;-77
2022/04/04 06:48:23;;;;;;;9.30;8.40;;;;;;;;;;5084870;28;20216;-77
2022/04/04 06:50:51;;;;;;;8.65;7.75;;;;;;;;;;5085570;28;20204;-77
2022/04/04 06:53:21;;;;;;;6.38;5.88;;;;;;;;;;5091520;28;20232;-77
2022/04/04 06:55:49;;;;;;;7.13;6.53;;;;;;;;;;5088208;28;20621;-77
2022/04/04 06:58:16;;;;;;;7.72;7.03;;;;;;;;;;5083179;28;20581;-77
2022/04/04 07:00:45;;;;;;;7.57;6.88;;;;;;;;;;5090822;28;20228;-76
2022/04/04 07:03:12;;;;;;;7.90;7.20;;;;;;;;;;5091704;28;20323;-77
2022/04/04 07:05:41;;;;;;;8.50;7.70;;;;;;;;;;5091032;28;20200;-77
2022/04/04 07:08:09;;;;;;;6.88;6.22;;;;;;;;;;5091787;28;20242;-78
2022/04/04 07:10:37;;;;;;;7.10;6.45;;;;;;;;;;5095649;28;20212;-77
2022/04/04 07:13:05;;;;;;;7.97;7.28;;;;;;;;;;5094424;28;20677;-77
2022/04/04 07:15:33;;;;;;;7.97;7.18;;;;;;;;;;5095122;28;20204;-76
2022/04/04 07:18:00;;;;;;;7.00;6.28;;;;;;;;;;5095658;28;20233;-78
2022/04/04 07:20:28;;;;;;;8.18;7.40;;;;;;;;;;5094302;28;20235;-77
2022/04/04 07:22:56;;;;;;;8.15;7.35;;;;;;;;;;5094787;28;20246;-77
2022/04/04 07:25:24;;;;;;;5.55;5.15;;;;;;;;;;5094294;28;20215;-78
2022/04/04 07:27:51;;;;;;;6.05;5.47;;;;;;;;;;5094510;28;20212;-79
2022/04/04 07:30:20;;;;;;;6.22;5.68;;;;;;;;;;5086544;28;20647;-77
2022/04/04 07:32:48;;;;;;;7.28;6.13;;;;;;;;;;5094465;28;20207;-81
2022/04/04 07:35:16;;;;;;;6.85;6.15;;;;;;;;;;5094628;28;20201;-78
2022/04/04 07:37:45;;;;;;;6.00;5.50;;;;;;;;;;5094968;28;20208;-78
2022/04/04 07:40:16;;;;;;;6.53;6.03;;;;;;;;;;5094262;28;20232;-78
2022/04/04 07:42:45;;;;;;;6.95;6.35;;;;;;;;;;5094372;28;20200;-78
2022/04/04 07:45:15;;;;;;;6.68;6.07;;;;;;;;;;5093994;28;20212;-78
2022/04/04 07:47:43;;;;;;;6.43;5.82;;;;;;;;;;5086914;28;20208;-78
2022/04/04 07:50:13;;;;;;;6.95;6.25;;;;;;;;;;5094274;28;20200;-79
2022/04/04 07:52:41;;;;;;;7.40;6.32;;;;;;;;;;5093766;28;20211;-78
2022/04/04 07:55:09;;;;;;;5.53;5.03;;;;;;;;;;5090934;28;20224;-78
2022/04/04 07:57:39;;;;;;;7.03;6.15;;;;;;;;;;5093775;28;20675;-78
2022/04/04 08:00:08;;;;;;;6.47;5.97;;;;;;;;;;5093155;28;20297;-78
2022/04/04 08:02:36;;;;;;;5.95;5.32;;;;;;;;;;5093492;28;20212;-77
2022/04/04 08:05:04;;;;;;;5.68;5.13;;;;;;;;;;5093927;28;20231;-78
2022/04/04 08:07:31;;;;;;;5.53;5.00;;;;;;;;;;5093634;28;20212;-78
2022/04/04 08:09:58;;;;;;;6.07;5.47;;;;;;;;;;5093308;28;20305;-77
2022/04/04 09:40:11;;;;;;;3.13;2.65;;;;;;;;;;5117406;27;20510;-78
2022/04/04 09:42:38;;;;;;;3.30;2.70;;;;;;;;;;5109819;28;20302;-78
2022/04/04 09:45:09;;;;;;;2.92;2.72;;;;;;;;;;5109586;28;20228;-78
2022/04/04 09:47:57;;;;;;;4.50;2.95;;;;;;;;;;5110664;28;20208;-79
2022/04/04 09:50:43;;;;;;;5.30;2.90;;;;;;;;;;5110043;28;20652;-82
2022/04/04 09:53:14;;;;;;;2.83;2.63;;;;;;;;;;5109433;28;20328;-79
2022/04/04 09:55:46;;;;;;;3.47;3.17;;;;;;;;;;5109164;28;20597;-78
2022/04/04 09:58:16;;;;;;;4.63;3.25;;;;;;;;;;5110365;28;20216;-78
2022/04/04 10:00:45;;;;;;;3.40;3.05;;;;;;;;;;5104220;28;20234;-77
2022/04/04 10:03:13;;;;;;;3.40;3.10;;;;;;;;;;5109244;28;20220;-77
2022/04/04 10:05:43;;;;;;;3.05;2.75;;;;;;;;;;5109267;28;20664;-77
2022/04/04 10:08:13;;;;;;;2.50;2.30;;;;;;;;;;5109150;28;20287;-77
2022/04/04 10:10:42;;;;;;;3.38;3.08;;;;;;;;;;5109478;28;20227;-78
2022/04/04 10:13:11;;;;;;;3.20;3.00;;;;;;;;;;5109809;28;20224;-77
2022/04/04 10:15:39;;;;;;;4.95;2.65;;;;;;;;;;5109246;28;20269;-78
2022/04/04 10:18:07;;;;;;;3.38;3.08;;;;;;;;;;5109502;28;20656;-77
2022/04/04 10:20:35;;;;;;;3.30;3.10;;;;;;;;;;5108859;28;20203;-77
2022/04/04 10:23:04;;;;;;;2.40;2.22;;;;;;;;;;5109033;28;20253;-77
2022/04/04 10:25:34;;;;;;;3.67;3.38;;;;;;;;;;5110651;28;20227;-77
2022/04/04 10:28:02;;;;;;;3.00;2.75;;;;;;;;;;5109409;28;20239;-77
2022/04/04 10:30:40;;;;;;;4.05;3.38;;;;;;;;;;5107384;28;20285;-77
2022/04/04 10:33:19;;;;;;;6.20;3.83;;;;;;;;;;5109182;28;20237;-79
2022/04/04 10:36:01;;;;;;;3.30;3.08;;;;;;;;;;5110442;28;20272;-79
2022/04/04 10:38:30;;;;;;;3.60;3.30;;;;;;;;;;5110159;28;20247;-78
2022/04/04 10:40:58;;;;;;;3.13;2.88;;;;;;;;;;5109242;28;20207;-78
2022/04/04 10:43:32;;;;;;;3.33;2.95;;;;;;;;;;5109452;28;20588;-79
2022/04/04 10:46:02;;;;;;;3.13;2.92;;;;;;;;;;5109364;28;20206;-79
2022/04/04 10:48:35;;;;;;;4.30;4.00;;;;;;;;;;5109874;28;20199;-79
2022/04/04 10:51:10;;;;;;;3.88;3.58;;;;;;;;;;5098756;28;20213;-79
2022/04/04 10:53:43;;;;;;;3.50;3.20;;;;;;;;;;5096034;28;20259;-79
2022/04/04 10:56:12;;;;;;;4.53;4.13;;;;;;;;;;5097130;28;20209;-79
2022/04/04 10:58:41;;;;;;;5.20;3.00;;;;;;;;;;5095976;28;20311;-78
2022/04/04 11:01:14;;;;;;;3.60;3.38;;;;;;;;;;5091458;28;20249;-79
2022/04/04 11:03:43;;;;;;;3.25;3.05;;;;;;;;;;5096816;28;20250;-79
2022/04/04 11:09:11;;;;;;;4.43;4.03;;;;;;;;;;5098187;28;20285;-78
2022/04/04 11:11:44;;;;;;;3.83;3.53;;;;;;;;;;5096961;28;20621;-78
2022/04/04 11:14:13;;;;;;;4.25;3.90;;;;;;;;;;5097019;28;20259;-78
2022/04/04 11:17:33;;;;;;;3.95;3.65;;;;;;;;;;5096717;28;20211;-79
2022/04/04 11:20:10;;;;;;;4.05;3.75;;;;;;;;;;5064056;28;20285;-79
2022/04/04 11:22:45;;;;;;;3.65;3.25;;;;;;;;;;5089624;28;20271;-78
2022/04/04 11:25:16;;;;;;;4.63;4.22;;;;;;;;;;5095493;28;20210;-79
2022/04/04 11:27:48;;;;;;;3.58;3.28;;;;;;;;;;5095023;28;20208;-78
2022/04/04 11:30:18;;;;;;;3.22;2.92;;;;;;;;;;5094431;28;20867;-78
2022/04/04 11:32:49;;;;;;;3.80;3.47;;;;;;;;;;5095216;28;20588;-78
2022/04/04 11:35:20;;;;;;;3.72;3.42;;;;;;;;;;5095795;28;20656;-78
2022/04/04 11:37:50;;;;;;;3.80;3.50;;;;;;;;;;5095397;28;20243;-78
2022/04/04 11:40:23;;;;;;;3.40;3.10;;;;;;;;;;5095857;28;20254;-78
2022/04/04 11:42:52;;;;;;;5.03;4.03;;;;;;;;;;5094596;28;20630;-79
2022/04/04 11:45:23;;;;;;;3.92;3.63;;;;;;;;;;5095529;28;20200;-78
2022/04/04 11:47:53;;;;;;;4.95;4.55;;;;;;;;;;5094839;28;20205;-78
2022/04/04 11:50:23;;;;;;;4.80;3.58;;;;;;;;;;5095803;28;20211;-79
2022/04/04 11:52:53;;;;;;;4.10;3.80;;;;;;;;;;5095483;28;20211;-80
2022/04/04 11:55:25;;;;;;;3.95;3.65;;;;;;;;;;5091116;28;20585;-79
2022/04/04 11:57:57;;;;;;;3.95;3.65;;;;;;;;;;5089135;28;20208;-78
2022/04/04 12:00:27;;;;;;;3.30;3.08;;;;;;;;;;5095238;28;20232;-78
2022/04/04 12:02:55;;;;;;;3.97;3.63;;;;;;;;;;5094214;28;20695;-79
2022/04/04 12:05:23;;;;;;;4.50;4.13;;;;;;;;;;5095487;28;20695;-78
2022/04/04 12:07:51;;;;;;;3.75;3.45;;;;;;;;;;5095160;28;20205;-79
2022/04/04 12:10:31;;;;;;;3.60;3.30;;;;;;;;;;5095274;28;20664;-78
2022/04/04 12:13:04;;;;;;;3.90;3.60;;;;;;;;;;5094779;28;20207;-78
2022/04/04 12:15:35;;;;;;;3.53;3.20;;;;;;;;;;5095757;28;20212;-80
2022/04/04 12:18:04;;;;;;;4.07;3.78;;;;;;;;;;5094556;28;20210;-79
2022/04/04 12:20:42;;;;;;;4.35;3.95;;;;;;;;;;5094570;28;20259;-79
2022/04/04 12:25:58;;;;;;;3.95;3.30;;;;;;;;;;5090364;28;20207;-79
2022/04/04 12:28:27;;;;;;;3.90;3.20;;;;;;;;;;5094288;28;20204;-78
2022/04/04 12:30:57;;;;;;;3.50;3.17;;;;;;;;;;5094049;28;20286;-78
2022/04/04 12:33:32;;;;;;;3.90;3.60;;;;;;;;;;5094261;28;20239;-79
2022/04/04 12:36:00;;;;;;;3.85;3.55;;;;;;;;;;5094747;28;20257;-78
2022/04/04 12:38:30;;;;;;;3.20;2.90;;;;;;;;;;5094293;28;20220;-78
2022/04/04 12:41:11;;;;;;;3.10;2.90;;;;;;;;;;5094362;28;20681;-78
2022/04/04 12:43:41;;;;;;;3.30;3.10;;;;;;;;;;5094259;28;20320;-78
2022/04/04 12:46:25;;;;;;;3.65;3.35;;;;;;;;;;5093997;28;20594;-78
2022/04/04 12:48:53;;;;;;;4.82;3.72;;;;;;;;;;5093809;28;20208;-78
2022/04/04 12:51:29;;;;;;;3.88;3.65;;;;;;;;;;5093692;28;20208;-77
2022/04/04 12:54:00;;;;;;;4.20;3.80;;;;;;;;;;5093038;28;20220;-78
2022/04/04 12:56:27;;;;;;;3.58;3.38;;;;;;;;;;5093228;28;20294;-78
2022/04/04 12:59:07;;;;;;;4.32;3.50;;;;;;;;;;5093346;28;20212;-77
2022/04/04 13:01:37;;;;;;;4.75;3.75;;;;;;;;;;5089536;28;20719;-78
2022/04/04 13:04:19;;;;;;;5.28;3.67;;;;;;;;;;5092937;28;20223;-78
2022/04/04 13:06:46;;;;;;;4.50;3.45;;;;;;;;;;5086532;28;20337;-78
2022/04/04 13:09:21;;;;;;;4.07;3.67;;;;;;;;;;5086282;28;20216;-78
2022/04/04 13:11:50;;;;;;;3.22;3.03;;;;;;;;;;5088958;28;20203;-79
2022/04/04 13:14:17;;;;;;;6.40;3.97;;;;;;;;;;5092449;28;20800;-79
2022/04/04 13:16:49;;;;;;;3.72;3.42;;;;;;;;;;5092413;28;20679;-79
2022/04/04 13:19:18;;;;;;;3.97;3.58;;;;;;;;;;5092386;28;20234;-78
2022/04/04 13:21:48;;;;;;;3.72;3.42;;;;;;;;;;5093175;28;20227;-79
2022/04/04 13:24:15;;;;;;;3.78;3.33;;;;;;;;;;5092070;28;20311;-77
2022/04/04 13:26:45;;;;;;;3.08;2.88;;;;;;;;;;5092329;28;20204;-77
2022/04/04 13:29:12;;;;;;;3.60;3.30;;;;;;;;;;5092500;28;20212;-78
2022/04/04 13:31:41;;;;;;;3.15;2.85;;;;;;;;;;5085788;28;20204;-79
2022/04/04 13:34:11;;;;;;;3.85;3.47;;;;;;;;;;5092514;28;20220;-78
2022/04/04 13:36:39;;;;;;;3.45;3.25;;;;;;;;;;5092719;28;20210;-79
2022/04/04 13:39:09;;;;;;;3.53;3.25;;;;;;;;;;5092707;28;20737;-78
2022/04/04 13:41:38;;;;;;;3.90;3.60;;;;;;;;;;5092338;28;20228;-79
2022/04/04 13:44:07;;;;;;;4.30;3.45;;;;;;;;;;5092366;28;20607;-78
2022/04/04 13:46:34;;;;;;;3.97;3.67;;;;;;;;;;5093076;28;20204;-78
2022/04/04 13:49:02;;;;;;;3.53;3.22;;;;;;;;;;5093634;28;20207;-79
2022/04/04 13:51:31;;;;;;;4.10;3.80;;;;;;;;;;5093122;28;20660;-79
2022/04/04 13:54:00;;;;;;;4.05;3.72;;;;;;;;;;5092754;28;20220;-79
2022/04/04 13:56:29;;;;;;;5.82;3.95;;;;;;;;;;5094312;28;20231;-79
2022/04/04 13:58:57;;;;;;;4.20;3.90;;;;;;;;;;5093773;28;20208;-80
2022/04/04 14:01:27;;;;;;;4.13;3.80;;;;;;;;;;5094004;28;20224;-79
2022/04/04 14:03:56;;;;;;;4.15;3.75;;;;;;;;;;5093793;28;20269;-79
2022/04/04 14:06:24;;;;;;;5.10;4.55;;;;;;;;;;5094016;28;20204;-78
2022/04/04 14:08:53;;;;;;;4.70;4.30;;;;;;;;;;5093327;28;20205;-79
2022/04/04 14:11:20;;;;;;;3.88;3.58;;;;;;;;;;5093912;28;20692;-79
2022/04/04 14:13:50;;;;;;;4.38;3.80;;;;;;;;;;5093527;28;20227;-79
2022/04/04 14:16:18;;;;;;;5.10;3.55;;;;;;;;;;5094427;28;20626;-78
2022/04/04 14:18:46;;;;;;;4.10;3.70;;;;;;;;;;5094155;28;20672;-79
2022/04/04 14:21:15;;;;;;;4.60;4.25;;;;;;;;;;5095519;28;20322;-80
2022/04/04 14:23:44;;;;;;;4.82;4.40;;;;;;;;;;5094372;28;20224;-79
2022/04/04 14:26:13;;;;;;;3.65;3.35;;;;;;;;;;5095597;28;20734;-79
2022/04/04 14:28:41;;;;;;;3.92;3.55;;;;;;;;;;5096558;28;20716;-79
2022/04/04 14:31:09;;;;;;;3.65;3.35;;;;;;;;;;5096075;28;20207;-79
2022/04/04 14:33:36;;;;;;;3.88;3.58;;;;;;;;;;5096019;28;20224;-79
2022/04/04 14:36:05;;;;;;;4.35;3.95;;;;;;;;;;5096331;28;20216;-79
2022/04/04 14:38:35;;;;;;;3.70;3.40;;;;;;;;;;5096094;28;20212;-80
2022/04/04 14:41:03;;;;;;;4.25;3.85;;;;;;;;;;5095700;28;20293;-79
2022/04/04 14:43:31;;;;;;;3.22;2.95;;;;;;;;;;5095601;28;20254;-79
2022/04/04 14:45:58;;;;;;;2.95;2.75;;;;;;;;;;5095460;28;20207;-78
2022/04/04 14:48:26;;;;;;;3.65;3.35;;;;;;;;;;5095112;28;20200;-79
2022/04/04 14:50:53;;;;;;;3.45;3.15;;;;;;;;;;5095414;28;20205;-78
2022/04/04 14:53:20;;;;;;;3.03;2.83;;;;;;;;;;5094707;28;20583;-78
2022/04/04 14:55:48;;;;;;;3.03;2.83;;;;;;;;;;5094725;28;20212;-78
2022/04/04 14:58:15;;;;;;;3.60;3.30;;;;;;;;;;5094870;28;20291;-78
2022/04/04 15:00:44;;;;;;;4.55;3.22;;;;;;;;;;5094611;28;20197;-79
2022/04/04 15:03:11;;;;;;;3.10;2.88;;;;;;;;;;5094535;28;20224;-78
2022/04/04 15:05:38;;;;;;;3.25;2.95;;;;;;;;;;5094949;28;20281;-78
2022/04/04 15:08:07;;;;;;;3.85;3.53;;;;;;;;;;5094824;28;20208;-78
2022/04/04 15:10:34;;;;;;;2.92;2.72;;;;;;;;;;5094674;28;20771;-78
2022/04/04 15:13:01;;;;;;;3.45;3.22;;;;;;;;;;5094910;28;20197;-78
2022/04/04 15:15:29;;;;;;;3.25;2.95;;;;;;;;;;5095659;28;20204;-79
2022/04/04 15:17:57;;;;;;;3.60;3.30;;;;;;;;;;5096181;28;20210;-79
2022/04/04 15:20:26;;;;;;;3.22;3.03;;;;;;;;;;5095257;28;20234;-78
2022/04/04 15:22:54;;;;;;;3.05;2.85;;;;;;;;;;5094233;28;20236;-78
2022/04/04 15:25:21;;;;;;;3.40;3.10;;;;;;;;;;5093911;28;20212;-78
2022/04/04 15:27:48;;;;;;;2.95;2.75;;;;;;;;;;5094257;28;20253;-78
2022/04/04 15:30:17;;;;;;;2.95;2.72;;;;;;;;;;5090303;28;20204;-79
2022/04/04 15:32:44;;;;;;;2.97;2.38;;;;;;;;;;5093970;28;20211;-78
2022/04/04 15:35:13;;;;;;;4.68;3.10;;;;;;;;;;5094194;28;20561;-78
2022/04/04 15:37:41;;;;;;;2.90;2.70;;;;;;;;;;5094210;28;20643;-78
2022/04/04 15:40:10;;;;;;;2.80;2.60;;;;;;;;;;5093996;28;20208;-78
2022/04/04 15:42:38;;;;;;;2.80;2.60;;;;;;;;;;5094055;28;20228;-78
2022/04/04 15:45:07;;;;;;;3.53;3.22;;;;;;;;;;5094015;28;20599;-79
2022/04/04 15:47:34;;;;;;;2.80;2.60;;;;;;;;;;5093901;28;20211;-78
2022/04/04 15:50:01;;;;;;;2.85;2.65;;;;;;;;;;5093703;28;20295;-78
2022/04/04 15:52:30;;;;;;;3.63;3.10;;;;;;;;;;5093712;28;20200;-78
2022/04/04 15:54:58;;;;;;;5.07;4.55;;;;;;;;;;5093886;28;20699;-79
2022/04/04 15:57:25;;;;;;;4.50;3.78;;;;;;;;;;5096916;28;20204;-78
2022/04/04 15:59:53;;;;;;;4.03;3.70;;;;;;;;;;5098795;28;20212;-78
2022/04/04 16:02:20;;;;;;;3.42;3.22;;;;;;;;;;5097334;28;20281;-78
2022/04/04 16:04:47;;;;;;;2.85;2.65;;;;;;;;;;5094401;28;20702;-78
2022/04/04 16:07:15;;;;;;;2.90;2.70;;;;;;;;;;5094097;28;20207;-80
2022/04/04 16:09:43;;;;;;;2.42;2.22;;;;;;;;;;5094660;28;20215;-78
2022/04/04 16:12:14;;;;;;;2.95;2.75;;;;;;;;;;5093154;28;20196;-78
2022/04/04 16:14:41;;;;;;;2.20;2.10;;;;;;;;;;5093962;28;20280;-78
2022/04/04 16:17:08;;;;;;;2.08;1.92;;;;;;;;;;5093351;28;20212;-77
2022/04/04 16:19:35;;;;;;;2.42;2.25;;;;;;;;;;5093952;28;20204;-79
2022/04/04 16:22:03;;;;;;;2.20;2.10;;;;;;;;;;5093041;28;20235;-78
2022/04/04 16:24:31;;;;;;;2.60;2.45;;;;;;;;;;5092623;28;20653;-78
2022/04/04 16:27:00;;;;;;;2.30;2.13;;;;;;;;;;5093453;28;20207;-79
2022/04/04 16:29:27;;;;;;;2.40;2.20;;;;;;;;;;5093936;28;20208;-79